createdAt,value
2023-11-20T00:01:23.998Z,2.60
2023-11-20T00:03:57.459Z,2.70
2023-11-20T00:06:28.614Z,2.90
2023-11-20T00:08:59.298Z,2.85
2023-11-20T00:11:29.458Z,2.35
2023-11-20T00:13:59.430Z,3.05
2023-11-20T00:16:29.392Z,2.70
2023-11-20T00:19:03.771Z,2.70
2023-11-20T00:21:33.717Z,2.17
2023-11-20T00:24:06.562Z,2.00
2023-11-20T00:26:36.516Z,2.72
2023-11-20T00:29:06.979Z,2.30
2023-11-20T00:31:37.347Z,2.53
2023-11-20T00:34:09.964Z,2.20
2023-11-20T00:36:40.221Z,3.60
2023-11-20T00:39:10.237Z,2.88
2023-11-20T00:41:40.786Z,2.92
2023-11-20T00:44:10.666Z,3.00
2023-11-20T00:46:40.940Z,2.97
2023-11-20T00:49:13.521Z,4.00
2023-11-20T00:51:44.343Z,3.17
2023-11-20T00:54:14.447Z,2.35
2023-11-20T00:56:44.678Z,2.17
2023-11-20T00:59:14.567Z,1.70
2023-11-20T01:01:44.520Z,2.15
2023-11-20T01:04:17.213Z,2.05
2023-11-20T01:06:47.451Z,1.48
2023-11-20T01:09:17.579Z,2.03
2023-11-20T01:11:47.880Z,2.47
2023-11-20T01:14:18.142Z,2.17
2023-11-20T01:16:48.081Z,2.60
2023-11-20T01:19:21.027Z,2.35
2023-11-20T01:21:50.988Z,1.92
2023-11-20T01:24:21.024Z,2.30
2023-11-20T01:26:50.971Z,2.85
2023-11-20T01:29:21.136Z,1.90
2023-11-20T01:31:51.077Z,2.75
2023-11-20T01:34:24.473Z,2.47
2023-11-20T01:36:54.684Z,1.58
2023-11-20T01:39:24.958Z,3.10
2023-11-20T01:41:55.349Z,2.53
2023-11-20T01:44:26.258Z,2.30
2023-11-20T01:46:56.804Z,2.33
2023-11-20T01:49:31.604Z,2.40
2023-11-20T01:52:01.986Z,2.17
2023-11-20T01:54:33.397Z,1.95
2023-11-20T01:57:04.334Z,2.15
2023-11-20T01:59:34.536Z,1.80
2023-11-20T02:02:07.007Z,2.97
2023-11-20T02:04:40.337Z,2.33
2023-11-20T02:07:12.032Z,2.17
2023-11-20T02:09:42.319Z,1.67
2023-11-20T02:12:12.366Z,2.13
2023-11-20T02:14:42.682Z,2.33
2023-11-20T02:17:12.699Z,2.20
2023-11-20T02:19:49.595Z,2.28
2023-11-20T02:22:19.588Z,2.00
2023-11-20T02:24:50.621Z,1.73
2023-11-20T02:27:34.491Z,1.58
2023-11-20T02:30:08.699Z,2.72
2023-11-20T02:32:38.744Z,2.38
2023-11-20T02:35:09.114Z,1.83
2023-11-20T02:37:39.051Z,3.40
2023-11-20T02:40:11.818Z,1.95
2023-11-20T02:42:42.513Z,2.30
2023-11-20T02:45:18.313Z,2.95
2023-11-20T02:47:49.026Z,1.75
2023-11-20T02:50:18.989Z,2.08
2023-11-20T02:52:49.219Z,2.10
2023-11-20T02:55:19.477Z,1.52
2023-11-20T02:57:49.752Z,1.70
2023-11-20T03:00:22.710Z,2.00
2023-11-20T03:02:53.325Z,2.05
2023-11-20T03:05:23.416Z,1.98
2023-11-20T03:07:53.361Z,2.38
2023-11-20T03:10:23.299Z,1.38
2023-11-20T03:12:53.277Z,2.35
2023-11-20T03:15:25.844Z,1.92
2023-11-20T03:17:56.001Z,2.53
2023-11-20T03:20:25.993Z,2.10
2023-11-20T03:22:56.176Z,1.40
2023-11-20T03:25:26.422Z,1.90
2023-11-20T03:27:57.288Z,1.58
2023-11-20T03:30:30.126Z,1.60
2023-11-20T03:33:00.302Z,1.85
2023-11-20T03:35:30.523Z,1.38
2023-11-20T03:38:00.438Z,1.35
2023-11-20T03:40:30.720Z,1.85
2023-11-20T03:43:00.741Z,1.50
2023-11-20T03:45:33.624Z,0.60
2023-11-20T03:48:03.975Z,1.10
2023-11-20T03:50:33.991Z,2.13
2023-11-20T03:53:04.371Z,1.40
2023-11-20T03:55:34.367Z,1.50
2023-11-20T03:58:07.730Z,1.40
2023-11-20T04:00:40.674Z,1.38
2023-11-20T04:03:10.775Z,1.33
2023-11-20T04:05:40.783Z,1.85
2023-11-20T04:08:11.325Z,1.45
2023-11-20T04:10:41.919Z,1.38
2023-11-20T04:13:12.228Z,0.90
2023-11-20T04:15:45.103Z,1.25
2023-11-20T04:18:15.271Z,1.63
2023-11-20T04:20:46.054Z,1.48
2023-11-20T04:23:17.026Z,1.17
2023-11-20T04:25:47.338Z,1.40
2023-11-20T04:28:17.340Z,2.03
2023-11-20T04:30:50.365Z,1.40
2023-11-20T04:35:50.456Z,1.20
2023-11-20T04:38:20.771Z,2.13
2023-11-20T04:40:51.194Z,1.15
2023-11-20T04:43:21.406Z,1.70
2023-11-20T04:45:54.073Z,0.73
2023-11-20T04:48:24.213Z,0.90
2023-11-20T04:50:54.509Z,1.05
2023-11-20T04:53:25.769Z,1.55
2023-11-20T04:55:56.484Z,0.70
2023-11-20T04:58:26.840Z,0.70
2023-11-20T05:00:59.595Z,1.27
2023-11-20T05:03:29.839Z,1.35
2023-11-20T05:05:59.858Z,0.70
2023-11-20T05:08:30.098Z,1.30
2023-11-20T05:11:00.370Z,0.85
2023-11-20T05:13:30.206Z,1.63
2023-11-20T05:16:03.185Z,1.00
2023-11-20T05:18:33.146Z,0.73
2023-11-20T05:21:03.532Z,0.88
2023-11-20T05:23:33.545Z,0.50
2023-11-20T05:26:05.601Z,0.60
2023-11-20T05:28:35.529Z,0.98
2023-11-20T05:31:08.538Z,1.00
2023-11-20T05:36:09.345Z,1.20
2023-11-20T05:38:39.346Z,0.70
2023-11-20T05:41:09.850Z,0.63
2023-11-20T05:43:40.542Z,0.77
2023-11-20T05:46:15.826Z,0.73
2023-11-20T05:48:46.120Z,1.00
2023-11-20T05:51:20.418Z,0.85
2023-11-20T05:53:50.428Z,0.70
2023-11-20T05:56:20.345Z,0.60
2023-11-20T05:58:50.940Z,0.70
2023-11-20T06:01:23.643Z,0.60
2023-11-20T06:03:53.861Z,0.40
2023-11-20T06:06:24.209Z,0.88
2023-11-20T06:08:54.498Z,1.10
2023-11-20T06:11:24.771Z,0.68
2023-11-20T06:13:54.685Z,0.60
2023-11-20T06:16:27.513Z,1.02
2023-11-20T06:18:57.633Z,0.80
2023-11-20T06:21:30.294Z,1.30
2023-11-20T06:24:00.695Z,0.82
2023-11-20T06:26:30.761Z,0.93
2023-11-20T06:29:01.465Z,1.45
2023-11-20T06:31:34.042Z,0.50
2023-11-20T06:34:05.294Z,0.60
2023-11-20T06:36:35.669Z,1.05
2023-11-20T06:39:07.907Z,0.80
2023-11-20T06:41:39.552Z,0.88
2023-11-20T06:44:09.543Z,0.85
2023-11-20T06:46:42.688Z,0.80
2023-11-20T06:49:13.310Z,0.40
2023-11-20T06:51:46.419Z,0.77
2023-11-20T06:56:47.127Z,0.88
2023-11-20T06:59:18.600Z,0.77
2023-11-20T07:01:51.447Z,1.25
2023-11-20T07:04:21.538Z,0.73
2023-11-20T07:06:51.878Z,0.70
2023-11-20T07:09:27.135Z,0.68
2023-11-20T07:11:57.526Z,0.85
2023-11-20T07:14:27.514Z,0.90
2023-11-20T07:17:00.301Z,1.00
2023-11-20T07:19:30.672Z,0.98
2023-11-20T07:22:00.640Z,0.65
2023-11-20T07:24:32.160Z,0.65
2023-11-20T07:27:02.291Z,0.80
2023-11-20T07:29:32.277Z,1.45
2023-11-20T07:32:04.975Z,0.95
2023-11-20T07:34:35.048Z,1.05
2023-11-20T07:37:05.837Z,0.70
2023-11-20T07:39:36.266Z,0.60
2023-11-20T07:42:06.553Z,1.13
2023-11-20T07:44:36.681Z,0.88
2023-11-20T07:47:10.071Z,1.42
2023-11-20T07:49:40.159Z,0.75
2023-11-20T07:52:10.995Z,0.90
2023-11-20T07:54:42.124Z,0.90
2023-11-20T07:57:13.565Z,1.30
2023-11-20T07:59:43.433Z,1.95
2023-11-20T08:02:16.059Z,0.88
2023-11-20T08:04:46.250Z,1.00
2023-11-20T08:07:16.628Z,0.70
2023-11-20T08:09:46.656Z,0.93
2023-11-20T08:12:18.192Z,0.85
2023-11-20T08:14:48.558Z,1.40
2023-11-20T08:17:21.428Z,1.02
2023-11-20T08:19:51.788Z,1.67
2023-11-20T08:22:22.129Z,0.60
2023-11-20T08:24:52.321Z,1.77
2023-11-20T08:27:22.498Z,1.05
2023-11-20T08:29:52.735Z,0.63
2023-11-20T08:32:27.552Z,1.23
2023-11-20T08:34:57.632Z,1.13
2023-11-20T08:37:27.495Z,0.85
2023-11-20T08:39:58.014Z,1.20
2023-11-20T08:42:28.288Z,0.60
2023-11-20T08:44:58.249Z,0.65
2023-11-20T08:47:30.941Z,1.08
2023-11-20T08:50:01.178Z,0.95
2023-11-20T08:52:31.254Z,1.23
2023-11-20T08:55:01.736Z,1.25
2023-11-20T08:57:31.879Z,1.20
2023-11-20T09:00:02.347Z,1.88
2023-11-20T09:02:35.162Z,1.10
2023-11-20T09:05:08.251Z,1.52
2023-11-20T09:07:38.809Z,1.77
2023-11-20T09:10:10.526Z,1.73
2023-11-20T09:12:40.540Z,1.17
2023-11-20T09:15:12.779Z,1.30
2023-11-20T09:17:45.876Z,1.45
2023-11-20T09:20:22.125Z,1.20
2023-11-20T09:22:52.328Z,1.00
2023-11-20T09:25:23.084Z,1.60
2023-11-20T09:27:53.134Z,1.38
2023-11-20T09:30:23.362Z,1.13
2023-11-20T09:32:56.250Z,1.25
2023-11-20T09:35:28.058Z,1.40
2023-11-20T09:37:57.950Z,1.48
2023-11-20T09:40:28.420Z,1.02
2023-11-20T09:42:58.990Z,1.10
2023-11-20T09:45:33.630Z,0.80
2023-11-20T09:48:10.947Z,0.77
2023-11-20T09:50:42.703Z,1.38
2023-11-20T09:53:14.058Z,1.20
2023-11-20T09:55:44.378Z,2.03
2023-11-20T09:58:14.441Z,1.05
2023-11-20T10:00:45.059Z,1.75
2023-11-20T10:03:18.191Z,2.70
2023-11-20T10:05:50.102Z,1.25
2023-11-20T10:08:21.580Z,0.65
2023-11-20T10:10:52.670Z,0.90
2023-11-20T10:13:23.822Z,1.15
2023-11-20T10:15:54.571Z,3.03
2023-11-20T10:18:28.251Z,0.90
2023-11-20T10:21:02.940Z,0.80
2023-11-20T10:23:35.473Z,1.55
2023-11-20T10:26:06.534Z,3.05
2023-11-20T10:28:36.690Z,1.35
2023-11-20T10:31:07.066Z,1.00
2023-11-20T10:33:39.752Z,1.30
2023-11-20T10:36:11.774Z,1.08
2023-11-20T10:38:42.095Z,0.80
2023-11-20T10:41:13.500Z,0.70
2023-11-20T10:43:44.317Z,0.65
2023-11-20T10:46:15.616Z,1.45
2023-11-20T10:48:50.608Z,1.05
2023-11-20T10:51:22.367Z,1.80
2023-11-20T10:53:56.536Z,2.10
2023-11-20T10:56:28.130Z,2.55
2023-11-20T10:58:58.507Z,3.80
2023-11-20T11:01:30.386Z,1.42
2023-11-20T11:04:04.821Z,2.72
2023-11-20T11:06:35.492Z,1.52
2023-11-20T11:09:06.930Z,1.90
2023-11-20T11:11:36.003Z,1.73
2023-11-20T11:14:08.247Z,1.58
2023-11-20T11:16:41.898Z,2.20
2023-11-20T11:19:16.958Z,3.58
2023-11-20T11:21:50.916Z,5.72
2023-11-20T11:24:25.171Z,5.30
2023-11-20T11:26:57.421Z,4.55
2023-11-20T11:29:28.772Z,1.53
2023-11-20T11:32:08.677Z,1.25
2023-11-20T11:34:49.316Z,0.90
2023-11-20T11:37:26.585Z,1.00
2023-11-20T11:40:02.374Z,0.85
2023-11-20T11:42:38.322Z,0.95
2023-11-20T11:45:11.909Z,0.80
2023-11-20T11:47:45.001Z,1.20
2023-11-20T11:52:49.760Z,1.70
2023-11-20T11:55:27.077Z,1.00
2023-11-20T11:58:04.316Z,1.08
2023-11-20T12:00:34.738Z,1.00
2023-11-20T12:03:11.171Z,1.17
2023-11-20T12:05:56.859Z,1.30
2023-11-20T12:08:35.219Z,0.80
2023-11-20T12:11:05.599Z,0.98
2023-11-20T12:13:35.634Z,1.00
2023-11-20T12:16:09.203Z,0.77
2023-11-20T12:18:44.268Z,0.82
2023-11-20T12:21:15.356Z,1.23
2023-11-20T12:23:49.953Z,0.90
2023-11-20T12:26:21.303Z,0.98
2023-11-20T12:28:52.451Z,1.48
2023-11-20T12:31:22.746Z,1.52
2023-11-20T12:33:52.878Z,1.20
2023-11-20T12:36:26.375Z,0.88
2023-11-20T12:39:01.277Z,1.45
2023-11-20T12:41:31.499Z,1.05
2023-11-20T12:44:01.583Z,1.45
2023-11-20T12:46:32.892Z,3.10
2023-11-20T12:49:03.000Z,1.88
2023-11-20T12:51:33.179Z,2.30
2023-11-20T12:54:06.372Z,2.60
2023-11-20T12:56:37.996Z,1.40
2023-11-20T12:59:09.353Z,1.50
2023-11-20T13:01:39.662Z,1.15
2023-11-20T13:04:10.167Z,2.40
2023-11-20T13:06:41.430Z,1.45
2023-11-20T13:09:14.538Z,1.73
2023-11-20T13:14:14.952Z,2.53
2023-11-20T13:16:45.515Z,2.78
2023-11-20T13:19:15.969Z,1.75
2023-11-20T13:21:46.802Z,1.38
2023-11-20T13:24:19.659Z,1.70
2023-11-20T13:26:50.054Z,2.20
2023-11-20T13:29:20.670Z,1.52
2023-11-20T13:31:50.952Z,1.20
2023-11-20T13:34:21.532Z,1.30
2023-11-20T13:36:51.851Z,1.42
2023-11-20T13:39:24.847Z,1.20
2023-11-20T13:41:53.471Z,1.95
2023-11-20T13:44:23.446Z,1.60
2023-11-20T13:46:53.797Z,1.25
2023-11-20T13:49:25.332Z,2.60
2023-11-20T13:51:55.470Z,1.58
2023-11-20T13:54:28.096Z,5.63
2023-11-20T13:56:58.115Z,2.47
2023-11-20T13:59:28.545Z,2.72
2023-11-20T14:01:58.659Z,2.25
2023-11-20T14:04:29.603Z,2.40
2023-11-20T14:06:59.755Z,1.77
2023-11-20T14:09:33.199Z,1.88
2023-11-20T14:12:04.993Z,1.50
2023-11-20T14:14:35.222Z,3.63
2023-11-20T14:17:05.360Z,1.92
2023-11-20T14:19:35.702Z,2.17
2023-11-20T14:22:05.820Z,2.10
2023-11-20T14:24:38.815Z,2.95
2023-11-20T14:27:09.032Z,3.08
2023-11-20T14:29:39.400Z,2.58
2023-11-20T14:32:09.825Z,2.75
2023-11-20T14:34:40.278Z,1.80
2023-11-20T14:37:10.627Z,1.92
2023-11-20T14:39:43.386Z,2.67
2023-11-20T14:42:13.816Z,2.92
2023-11-20T14:44:44.023Z,2.00
2023-11-20T14:47:14.052Z,4.13
2023-11-20T14:49:44.173Z,4.90
2023-11-20T14:52:14.152Z,4.90
2023-11-20T14:54:47.109Z,5.80
2023-11-20T14:57:17.231Z,11.38
2023-11-20T14:59:47.105Z,7.68
2023-11-20T15:02:17.094Z,5.25
2023-11-20T15:04:47.436Z,4.32
2023-11-20T15:07:19.476Z,2.22
2023-11-20T15:09:51.956Z,3.13
2023-11-20T15:12:22.044Z,3.40
2023-11-20T15:14:52.626Z,2.45
2023-11-20T15:17:22.609Z,2.22
2023-11-20T15:19:52.525Z,3.38
2023-11-20T15:22:22.349Z,2.83
2023-11-20T15:24:54.990Z,2.05
2023-11-20T15:27:24.888Z,2.15
2023-11-20T15:29:54.790Z,1.88
2023-11-20T15:32:24.608Z,1.52
2023-11-20T15:34:54.834Z,1.63
2023-11-20T15:37:25.864Z,2.42
2023-11-20T15:39:58.481Z,1.80
2023-11-20T15:42:28.779Z,2.22
2023-11-20T15:44:58.616Z,2.03
2023-11-20T15:47:28.534Z,1.20
2023-11-20T15:49:58.475Z,1.63
2023-11-20T15:52:29.355Z,2.13
2023-11-20T15:55:02.030Z,1.95
2023-11-20T15:57:32.184Z,1.50
2023-11-20T16:00:02.177Z,2.85
2023-11-20T16:02:36.112Z,2.20
2023-11-20T16:05:06.099Z,3.13
2023-11-20T16:07:35.966Z,3.22
2023-11-20T16:10:09.382Z,4.05
2023-11-20T16:12:39.242Z,4.80
2023-11-20T16:15:11.333Z,3.33
2023-11-20T16:17:49.645Z,4.45
2023-11-20T16:20:19.628Z,2.63
2023-11-20T16:22:49.601Z,4.65
2023-11-20T16:25:22.226Z,3.65
2023-11-20T16:27:52.178Z,4.97
2023-11-20T16:30:23.411Z,4.15
2023-11-20T16:32:53.703Z,5.18
2023-11-20T16:35:25.199Z,3.67
2023-11-20T16:37:57.378Z,5.97
2023-11-20T16:40:30.251Z,3.13
2023-11-20T16:43:00.503Z,3.13
2023-11-20T16:45:30.478Z,2.47
2023-11-20T16:48:00.972Z,3.05
2023-11-20T16:50:31.720Z,2.65
2023-11-20T16:53:01.642Z,2.03
2023-11-20T16:55:35.290Z,1.98
2023-11-20T16:58:06.825Z,2.60
2023-11-20T17:00:37.063Z,4.70
2023-11-20T17:03:07.967Z,6.18
2023-11-20T17:05:38.484Z,3.92
2023-11-20T17:08:09.074Z,4.47
2023-11-20T17:10:43.573Z,4.47
2023-11-20T17:13:14.545Z,3.13
2023-11-20T17:15:44.551Z,2.83
2023-11-20T17:18:14.497Z,2.55
2023-11-20T17:20:44.726Z,2.97
2023-11-20T17:23:15.317Z,2.22
2023-11-20T17:25:48.054Z,2.60
2023-11-20T17:28:18.681Z,2.50
2023-11-20T17:30:48.514Z,2.92
2023-11-20T17:33:18.418Z,2.15
2023-11-20T17:35:48.661Z,3.28
2023-11-20T17:38:18.523Z,2.58
2023-11-20T17:40:51.091Z,2.95
2023-11-20T17:43:21.027Z,2.85
2023-11-20T17:45:51.300Z,3.45
2023-11-20T17:48:24.793Z,2.78
2023-11-20T17:50:55.151Z,3.97
2023-11-20T17:53:25.012Z,4.68
2023-11-20T17:55:58.790Z,3.70
2023-11-20T17:58:31.248Z,4.07
2023-11-20T18:01:01.859Z,3.13
2023-11-20T18:03:32.009Z,2.92
2023-11-20T18:06:02.714Z,4.43
2023-11-20T18:08:32.942Z,3.63
2023-11-20T18:11:02.922Z,3.15
2023-11-20T18:13:37.906Z,2.70
2023-11-20T18:16:08.342Z,2.25
2023-11-20T18:18:38.559Z,3.13
2023-11-20T18:21:09.018Z,3.40
2023-11-20T18:23:39.040Z,2.30
2023-11-20T18:26:09.094Z,1.80
2023-11-20T18:28:41.607Z,3.22
2023-11-20T18:31:11.944Z,1.42
2023-11-20T18:33:42.181Z,1.70
2023-11-20T18:36:15.974Z,2.53
2023-11-20T18:38:46.130Z,1.90
2023-11-20T18:41:15.987Z,1.30
2023-11-20T18:43:48.462Z,1.60
2023-11-20T18:46:21.784Z,1.63
2023-11-20T18:48:51.784Z,2.30
2023-11-20T18:51:21.648Z,3.38
2023-11-20T18:53:51.981Z,2.45
2023-11-20T18:56:21.874Z,3.42
2023-11-20T18:58:54.313Z,4.10
2023-11-20T19:01:24.286Z,3.33
2023-11-20T19:03:54.183Z,2.53
2023-11-20T19:06:24.187Z,1.98
2023-11-20T19:08:54.037Z,2.25
2023-11-20T19:11:23.887Z,1.98
2023-11-20T19:13:59.334Z,1.45
2023-11-20T19:16:29.236Z,1.25
2023-11-20T19:18:59.668Z,1.90
2023-11-20T19:21:29.554Z,1.50
2023-11-20T19:23:59.360Z,1.52
2023-11-20T19:26:29.725Z,1.67
2023-11-20T19:29:02.218Z,2.08
2023-11-20T19:31:32.096Z,2.67
2023-11-20T19:34:03.221Z,2.72
2023-11-20T19:36:33.948Z,2.35
2023-11-20T19:39:04.364Z,1.83
2023-11-20T19:41:34.680Z,1.42
2023-11-20T19:44:08.464Z,1.48
2023-11-20T19:46:38.769Z,1.70
2023-11-20T19:49:08.768Z,1.73
2023-11-20T19:51:39.354Z,1.52
2023-11-20T19:54:09.568Z,1.60
2023-11-20T19:56:39.694Z,1.30
2023-11-20T19:59:12.553Z,2.90
2023-11-20T20:01:42.555Z,2.67
2023-11-20T20:04:12.873Z,1.50
2023-11-20T20:06:42.829Z,1.88
2023-11-20T20:09:13.052Z,1.50
2023-11-20T20:11:43.316Z,2.00
2023-11-20T20:14:16.352Z,2.72
2023-11-20T20:19:16.805Z,1.85
2023-11-20T20:21:46.819Z,1.67
2023-11-20T20:24:16.704Z,2.65
2023-11-20T20:26:46.554Z,1.30
2023-11-20T20:29:19.173Z,1.85
2023-11-20T20:31:49.131Z,1.30
2023-11-20T20:34:19.154Z,1.77
2023-11-20T20:36:49.103Z,1.83
2023-11-20T20:39:19.598Z,1.85
2023-11-20T20:41:49.424Z,1.77
2023-11-20T20:44:22.209Z,1.65
2023-11-20T20:46:52.424Z,1.70
2023-11-20T20:49:23.466Z,1.30
2023-11-20T20:51:53.667Z,1.25
2023-11-20T20:54:24.264Z,1.95
2023-11-20T20:56:54.126Z,1.48
2023-11-20T20:59:26.707Z,2.00
2023-11-20T21:01:58.378Z,2.42
2023-11-20T21:04:29.671Z,2.55
2023-11-20T21:06:59.676Z,2.78
2023-11-20T21:09:29.786Z,3.42
2023-11-20T21:12:00.567Z,2.97
2023-11-20T21:14:33.302Z,2.90
2023-11-20T21:17:03.122Z,3.53
2023-11-20T21:19:33.333Z,4.03
2023-11-20T21:22:03.597Z,4.95
2023-11-20T21:24:33.477Z,3.38
2023-11-20T21:27:03.447Z,3.88
2023-11-20T21:29:36.173Z,2.33
2023-11-20T21:32:06.210Z,3.47
2023-11-20T21:34:36.397Z,3.20
2023-11-20T21:37:06.517Z,4.07
2023-11-20T21:39:36.698Z,4.95
2023-11-20T21:42:06.793Z,5.22
2023-11-20T21:44:40.865Z,4.68
2023-11-20T21:47:10.817Z,5.15
2023-11-20T21:49:41.885Z,4.28
2023-11-20T21:52:11.767Z,4.20
2023-11-20T21:54:41.693Z,4.35
2023-11-20T21:57:11.715Z,3.97
2023-11-20T21:59:44.232Z,2.97
2023-11-20T22:02:14.215Z,2.67
2023-11-20T22:04:44.585Z,2.28
2023-11-20T22:07:14.528Z,2.03
2023-11-20T22:09:44.630Z,2.22
2023-11-20T22:12:14.834Z,2.10
2023-11-20T22:14:47.757Z,2.42
2023-11-20T22:17:17.551Z,3.42
2023-11-20T22:19:47.701Z,4.85
2023-11-20T22:22:18.222Z,4.82
2023-11-20T22:24:48.687Z,3.78
2023-11-20T22:27:21.339Z,3.08
2023-11-20T22:29:53.777Z,2.75
2023-11-20T22:32:23.955Z,2.53
2023-11-20T22:35:09.747Z,2.40
2023-11-20T22:37:44.037Z,1.50
2023-11-20T22:40:17.514Z,2.25
2023-11-20T22:42:48.318Z,2.72
2023-11-20T22:45:22.615Z,2.53
2023-11-20T22:47:52.805Z,2.28
2023-11-20T22:50:22.632Z,2.65
2023-11-20T22:52:49.886Z,2.40
2023-11-20T22:55:20.237Z,2.40
2023-11-20T22:57:50.128Z,2.40
2023-11-20T23:00:29.115Z,2.88
2023-11-20T23:02:59.321Z,2.60
2023-11-20T23:05:29.557Z,2.00
2023-11-20T23:07:59.965Z,2.00
2023-11-20T23:10:31.702Z,2.08
2023-11-20T23:13:02.442Z,2.17
2023-11-20T23:15:36.918Z,2.20
2023-11-20T23:18:09.282Z,2.38
2023-11-20T23:20:39.286Z,2.25
2023-11-20T23:23:09.684Z,2.42
2023-11-20T23:25:39.990Z,2.33
2023-11-20T23:28:10.465Z,2.30
2023-11-20T23:30:43.016Z,2.42
2023-11-20T23:33:13.331Z,1.77
2023-11-20T23:35:43.173Z,2.38
2023-11-20T23:38:14.193Z,1.70
2023-11-20T23:40:44.866Z,2.28
2023-11-20T23:43:14.895Z,2.28
2023-11-20T23:45:47.324Z,2.30
2023-11-20T23:48:18.646Z,2.38
2023-11-20T23:50:49.214Z,2.65
2023-11-20T23:53:19.324Z,2.08
2023-11-20T23:55:49.503Z,2.30
2023-11-20T23:58:19.443Z,1.95
